sensor_id;sensor_type;location;lat;lon;timestamp;temperature;humidity
60701;DHT22;46541;49.894;10.886;2023-07-13T00:00:11;23.80;82.00
60701;DHT22;46541;49.894;10.886;2023-07-13T00:02:38;23.80;82.10
60701;DHT22;46541;49.894;10.886;2023-07-13T00:05:05;23.80;81.80
60701;DHT22;46541;49.894;10.886;2023-07-13T00:07:34;23.80;82.00
60701;DHT22;46541;49.894;10.886;2023-07-13T00:10:02;23.70;82.00
60701;DHT22;46541;49.894;10.886;2023-07-13T00:12:31;23.70;82.00
60701;DHT22;46541;49.894;10.886;2023-07-13T00:15:00;23.70;82.10
60701;DHT22;46541;49.894;10.886;2023-07-13T00:17:29;23.70;82.30
60701;DHT22;46541;49.894;10.886;2023-07-13T00:19:56;23.70;82.30
60701;DHT22;46541;49.894;10.886;2023-07-13T00:22:24;23.70;82.40
60701;DHT22;46541;49.894;10.886;2023-07-13T00:24:53;23.70;82.30
60701;DHT22;46541;49.894;10.886;2023-07-13T00:27:24;23.70;82.40
60701;DHT22;46541;49.894;10.886;2023-07-13T00:29:53;23.70;83.00
60701;DHT22;46541;49.894;10.886;2023-07-13T00:32:20;23.60;82.50
60701;DHT22;46541;49.894;10.886;2023-07-13T00:34:46;23.60;82.60
60701;DHT22;46541;49.894;10.886;2023-07-13T00:37:13;23.50;82.60
60701;DHT22;46541;49.894;10.886;2023-07-13T00:39:40;23.50;83.00
60701;DHT22;46541;49.894;10.886;2023-07-13T00:42:07;23.50;82.90
60701;DHT22;46541;49.894;10.886;2023-07-13T00:44:33;23.40;82.80
60701;DHT22;46541;49.894;10.886;2023-07-13T00:47:00;23.40;82.50
60701;DHT22;46541;49.894;10.886;2023-07-13T00:49:29;23.40;82.80
60701;DHT22;46541;49.894;10.886;2023-07-13T00:52:07;23.40;82.70
60701;DHT22;46541;49.894;10.886;2023-07-13T00:54:39;23.30;82.90
60701;DHT22;46541;49.894;10.886;2023-07-13T00:57:09;23.30;83.20
60701;DHT22;46541;49.894;10.886;2023-07-13T00:59:40;23.30;83.20
60701;DHT22;46541;49.894;10.886;2023-07-13T01:02:08;23.30;83.30
60701;DHT22;46541;49.894;10.886;2023-07-13T01:04:35;23.20;83.60
60701;DHT22;46541;49.894;10.886;2023-07-13T01:07:02;23.20;83.60
60701;DHT22;46541;49.894;10.886;2023-07-13T01:09:29;23.10;83.80
60701;DHT22;46541;49.894;10.886;2023-07-13T01:11:56;23.20;84.00
60701;DHT22;46541;49.894;10.886;2023-07-13T01:14:22;23.20;83.90
60701;DHT22;46541;49.894;10.886;2023-07-13T01:16:50;23.20;83.80
60701;DHT22;46541;49.894;10.886;2023-07-13T01:21:51;23.00;84.20
60701;DHT22;46541;49.894;10.886;2023-07-13T01:24:18;23.00;84.60
60701;DHT22;46541;49.894;10.886;2023-07-13T01:26:45;22.90;84.50
60701;DHT22;46541;49.894;10.886;2023-07-13T01:29:12;22.90;84.70
60701;DHT22;46541;49.894;10.886;2023-07-13T01:31:38;22.80;84.90
60701;DHT22;46541;49.894;10.886;2023-07-13T01:34:05;22.80;85.20
60701;DHT22;46541;49.894;10.886;2023-07-13T01:36:32;22.80;85.30
60701;DHT22;46541;49.894;10.886;2023-07-13T01:39:00;22.70;86.00
60701;DHT22;46541;49.894;10.886;2023-07-13T01:41:26;22.70;85.50
60701;DHT22;46541;49.894;10.886;2023-07-13T01:43:53;22.70;85.80
60701;DHT22;46541;49.894;10.886;2023-07-13T01:46:20;22.60;85.80
60701;DHT22;46541;49.894;10.886;2023-07-13T01:48:50;22.60;86.10
60701;DHT22;46541;49.894;10.886;2023-07-13T01:51:18;22.50;86.00
60701;DHT22;46541;49.894;10.886;2023-07-13T01:53:45;22.50;86.20
60701;DHT22;46541;49.894;10.886;2023-07-13T01:56:12;22.50;86.40
60701;DHT22;46541;49.894;10.886;2023-07-13T01:58:39;22.40;86.70
60701;DHT22;46541;49.894;10.886;2023-07-13T02:01:06;22.30;86.70
60701;DHT22;46541;49.894;10.886;2023-07-13T02:03:33;22.30;86.70
60701;DHT22;46541;49.894;10.886;2023-07-13T02:06:00;22.30;86.90
60701;DHT22;46541;49.894;10.886;2023-07-13T02:08:27;22.30;86.90
60701;DHT22;46541;49.894;10.886;2023-07-13T02:10:53;22.40;86.80
60701;DHT22;46541;49.894;10.886;2023-07-13T02:13:20;22.30;86.80
60701;DHT22;46541;49.894;10.886;2023-07-13T02:15:50;22.30;86.50
60701;DHT22;46541;49.894;10.886;2023-07-13T02:18:17;22.30;86.60
60701;DHT22;46541;49.894;10.886;2023-07-13T02:20:44;22.30;87.30
60701;DHT22;46541;49.894;10.886;2023-07-13T02:23:11;22.20;87.00
60701;DHT22;46541;49.894;10.886;2023-07-13T02:25:38;22.20;87.00
60701;DHT22;46541;49.894;10.886;2023-07-13T02:28:05;22.10;87.20
60701;DHT22;46541;49.894;10.886;2023-07-13T02:30:34;22.00;87.50
60701;DHT22;46541;49.894;10.886;2023-07-13T02:33:01;22.00;88.30
60701;DHT22;46541;49.894;10.886;2023-07-13T02:35:28;22.00;87.60
60701;DHT22;46541;49.894;10.886;2023-07-13T02:37:55;22.00;87.30
60701;DHT22;46541;49.894;10.886;2023-07-13T02:40:22;22.00;87.20
60701;DHT22;46541;49.894;10.886;2023-07-13T02:42:48;21.90;87.10
60701;DHT22;46541;49.894;10.886;2023-07-13T02:45:15;22.00;87.30
60701;DHT22;46541;49.894;10.886;2023-07-13T02:47:42;21.90;86.80
60701;DHT22;46541;49.894;10.886;2023-07-13T02:50:09;21.90;86.10
60701;DHT22;46541;49.894;10.886;2023-07-13T02:52:36;21.90;86.00
60701;DHT22;46541;49.894;10.886;2023-07-13T02:55:03;21.80;86.40
60701;DHT22;46541;49.894;10.886;2023-07-13T02:57:31;21.80;86.70
60701;DHT22;46541;49.894;10.886;2023-07-13T03:00:00;21.80;86.90
60701;DHT22;46541;49.894;10.886;2023-07-13T03:02:26;21.70;87.30
60701;DHT22;46541;49.894;10.886;2023-07-13T03:04:55;21.60;87.70
60701;DHT22;46541;49.894;10.886;2023-07-13T03:07:23;21.60;88.00
60701;DHT22;46541;49.894;10.886;2023-07-13T03:09:54;21.60;88.60
60701;DHT22;46541;49.894;10.886;2023-07-13T03:12:22;21.60;89.20
60701;DHT22;46541;49.894;10.886;2023-07-13T03:14:49;21.60;89.40
60701;DHT22;46541;49.894;10.886;2023-07-13T03:17:15;21.50;89.70
60701;DHT22;46541;49.894;10.886;2023-07-13T03:19:43;21.40;90.10
60701;DHT22;46541;49.894;10.886;2023-07-13T03:22:10;21.40;90.20
60701;DHT22;46541;49.894;10.886;2023-07-13T03:24:37;21.40;90.40
60701;DHT22;46541;49.894;10.886;2023-07-13T03:27:06;21.40;90.50
60701;DHT22;46541;49.894;10.886;2023-07-13T03:29:33;21.40;90.60
60701;DHT22;46541;49.894;10.886;2023-07-13T03:32:00;21.40;90.60
60701;DHT22;46541;49.894;10.886;2023-07-13T03:34:26;21.30;90.70
60701;DHT22;46541;49.894;10.886;2023-07-13T03:36:56;21.20;90.80
60701;DHT22;46541;49.894;10.886;2023-07-13T03:39:23;21.10;91.00
60701;DHT22;46541;49.894;10.886;2023-07-13T03:41:50;21.20;91.10
60701;DHT22;46541;49.894;10.886;2023-07-13T03:44:17;21.10;90.90
60701;DHT22;46541;49.894;10.886;2023-07-13T03:46:44;21.10;90.80
60701;DHT22;46541;49.894;10.886;2023-07-13T03:49:11;21.20;90.80
60701;DHT22;46541;49.894;10.886;2023-07-13T03:51:38;21.20;90.70
60701;DHT22;46541;49.894;10.886;2023-07-13T03:54:05;21.20;90.70
60701;DHT22;46541;49.894;10.886;2023-07-13T03:56:32;21.10;90.80
60701;DHT22;46541;49.894;10.886;2023-07-13T03:59:00;21.10;90.90
60701;DHT22;46541;49.894;10.886;2023-07-13T04:01:26;21.00;91.00
60701;DHT22;46541;49.894;10.886;2023-07-13T04:03:53;21.00;91.20
60701;DHT22;46541;49.894;10.886;2023-07-13T04:06:23;20.90;91.50
60701;DHT22;46541;49.894;10.886;2023-07-13T04:08:53;20.80;91.50
60701;DHT22;46541;49.894;10.886;2023-07-13T04:11:22;20.90;91.70
60701;DHT22;46541;49.894;10.886;2023-07-13T04:13:49;20.90;91.70
60701;DHT22;46541;49.894;10.886;2023-07-13T04:16:17;20.90;91.70
60701;DHT22;46541;49.894;10.886;2023-07-13T04:18:45;20.90;91.80
60701;DHT22;46541;49.894;10.886;2023-07-13T04:21:13;20.90;91.50
60701;DHT22;46541;49.894;10.886;2023-07-13T04:23:40;21.00;90.60
60701;DHT22;46541;49.894;10.886;2023-07-13T04:26:08;21.00;90.20
60701;DHT22;46541;49.894;10.886;2023-07-13T04:28:35;21.00;89.10
60701;DHT22;46541;49.894;10.886;2023-07-13T04:31:02;21.00;87.90
60701;DHT22;46541;49.894;10.886;2023-07-13T04:33:29;21.00;88.00
60701;DHT22;46541;49.894;10.886;2023-07-13T04:35:56;20.90;88.20
60701;DHT22;46541;49.894;10.886;2023-07-13T04:38:27;21.00;88.70
60701;DHT22;46541;49.894;10.886;2023-07-13T04:40:56;20.90;87.90
60701;DHT22;46541;49.894;10.886;2023-07-13T04:43:24;21.00;87.40
60701;DHT22;46541;49.894;10.886;2023-07-13T04:45:51;21.10;87.30
60701;DHT22;46541;49.894;10.886;2023-07-13T04:48:19;21.10;86.90
60701;DHT22;46541;49.894;10.886;2023-07-13T04:50:46;21.10;86.70
60701;DHT22;46541;49.894;10.886;2023-07-13T04:53:13;21.20;87.00
60701;DHT22;46541;49.894;10.886;2023-07-13T04:55:40;21.30;86.50
60701;DHT22;46541;49.894;10.886;2023-07-13T04:58:07;21.40;86.10
60701;DHT22;46541;49.894;10.886;2023-07-13T05:00:34;21.40;85.80
60701;DHT22;46541;49.894;10.886;2023-07-13T05:03:02;21.60;86.10
60701;DHT22;46541;49.894;10.886;2023-07-13T05:05:30;21.70;85.60
60701;DHT22;46541;49.894;10.886;2023-07-13T05:07:56;21.80;84.90
60701;DHT22;46541;49.894;10.886;2023-07-13T05:10:23;22.00;84.60
60701;DHT22;46541;49.894;10.886;2023-07-13T05:12:50;22.10;84.00
60701;DHT22;46541;49.894;10.886;2023-07-13T05:15:20;22.20;83.70
60701;DHT22;46541;49.894;10.886;2023-07-13T05:17:48;22.20;83.70
60701;DHT22;46541;49.894;10.886;2023-07-13T05:20:17;22.30;83.40
60701;DHT22;46541;49.894;10.886;2023-07-13T05:22:44;22.40;83.50
60701;DHT22;46541;49.894;10.886;2023-07-13T05:25:13;22.50;83.40
60701;DHT22;46541;49.894;10.886;2023-07-13T05:27:40;22.60;82.60
60701;DHT22;46541;49.894;10.886;2023-07-13T05:30:07;22.80;82.50
60701;DHT22;46541;49.894;10.886;2023-07-13T05:32:37;22.90;82.20
60701;DHT22;46541;49.894;10.886;2023-07-13T05:35:04;23.00;82.00
60701;DHT22;46541;49.894;10.886;2023-07-13T05:37:31;23.00;81.80
60701;DHT22;46541;49.894;10.886;2023-07-13T05:39:58;23.10;81.80
60701;DHT22;46541;49.894;10.886;2023-07-13T05:42:25;23.00;81.30
60701;DHT22;46541;49.894;10.886;2023-07-13T05:44:52;23.10;81.00
60701;DHT22;46541;49.894;10.886;2023-07-13T05:47:18;23.10;81.70
60701;DHT22;46541;49.894;10.886;2023-07-13T05:49:45;23.10;82.00
60701;DHT22;46541;49.894;10.886;2023-07-13T05:52:12;23.30;82.50
60701;DHT22;46541;49.894;10.886;2023-07-13T05:54:39;23.30;81.80
60701;DHT22;46541;49.894;10.886;2023-07-13T05:57:06;23.30;81.30
60701;DHT22;46541;49.894;10.886;2023-07-13T05:59:32;23.40;81.50
60701;DHT22;46541;49.894;10.886;2023-07-13T06:01:59;23.40;79.90
60701;DHT22;46541;49.894;10.886;2023-07-13T06:04:26;23.50;79.30
60701;DHT22;46541;49.894;10.886;2023-07-13T06:06:53;23.50;78.80
60701;DHT22;46541;49.894;10.886;2023-07-13T06:09:20;23.40;79.20
60701;DHT22;46541;49.894;10.886;2023-07-13T06:11:46;23.30;79.20
60701;DHT22;46541;49.894;10.886;2023-07-13T06:14:13;23.30;79.60
60701;DHT22;46541;49.894;10.886;2023-07-13T06:16:40;23.50;79.80
60701;DHT22;46541;49.894;10.886;2023-07-13T06:19:07;23.50;79.30
60701;DHT22;46541;49.894;10.886;2023-07-13T06:21:34;23.50;78.60
60701;DHT22;46541;49.894;10.886;2023-07-13T06:24:00;23.50;78.00
60701;DHT22;46541;49.894;10.886;2023-07-13T06:26:27;23.60;77.70
60701;DHT22;46541;49.894;10.886;2023-07-13T06:28:54;23.60;77.50
60701;DHT22;46541;49.894;10.886;2023-07-13T06:31:21;23.50;78.00
60701;DHT22;46541;49.894;10.886;2023-07-13T06:33:48;23.50;77.70
60701;DHT22;46541;49.894;10.886;2023-07-13T06:36:15;23.60;77.70
60701;DHT22;46541;49.894;10.886;2023-07-13T06:38:42;23.80;76.90
60701;DHT22;46541;49.894;10.886;2023-07-13T06:41:09;24.00;75.60
60701;DHT22;46541;49.894;10.886;2023-07-13T06:43:37;24.20;75.40
60701;DHT22;46541;49.894;10.886;2023-07-13T06:46:03;24.40;74.00
60701;DHT22;46541;49.894;10.886;2023-07-13T06:48:30;24.40;74.70
60701;DHT22;46541;49.894;10.886;2023-07-13T06:50:57;24.40;74.90
60701;DHT22;46541;49.894;10.886;2023-07-13T06:53:24;24.60;74.60
60701;DHT22;46541;49.894;10.886;2023-07-13T06:55:51;24.60;73.90
60701;DHT22;46541;49.894;10.886;2023-07-13T06:58:19;24.70;74.00
60701;DHT22;46541;49.894;10.886;2023-07-13T07:00:46;24.80;73.10
60701;DHT22;46541;49.894;10.886;2023-07-13T07:03:16;25.20;73.10
60701;DHT22;46541;49.894;10.886;2023-07-13T07:05:43;25.30;72.20
60701;DHT22;46541;49.894;10.886;2023-07-13T07:08:10;25.40;72.00
60701;DHT22;46541;49.894;10.886;2023-07-13T07:10:37;25.20;72.80
60701;DHT22;46541;49.894;10.886;2023-07-13T07:13:04;25.10;73.20
60701;DHT22;46541;49.894;10.886;2023-07-13T07:15:31;25.20;73.50
60701;DHT22;46541;49.894;10.886;2023-07-13T07:17:58;25.50;73.00
60701;DHT22;46541;49.894;10.886;2023-07-13T07:20:24;25.70;72.50
60701;DHT22;46541;49.894;10.886;2023-07-13T07:22:51;25.70;71.50
60701;DHT22;46541;49.894;10.886;2023-07-13T07:25:18;25.50;71.90
60701;DHT22;46541;49.894;10.886;2023-07-13T07:27:45;25.40;72.10
60701;DHT22;46541;49.894;10.886;2023-07-13T07:30:15;25.20;72.50
60701;DHT22;46541;49.894;10.886;2023-07-13T07:32:45;25.00;72.90
60701;DHT22;46541;49.894;10.886;2023-07-13T07:35:14;24.80;73.90
60701;DHT22;46541;49.894;10.886;2023-07-13T07:37:41;24.70;74.00
60701;DHT22;46541;49.894;10.886;2023-07-13T07:40:11;24.90;73.60
60701;DHT22;46541;49.894;10.886;2023-07-13T07:42:41;25.20;73.10
60701;DHT22;46541;49.894;10.886;2023-07-13T07:45:08;25.10;71.80
60701;DHT22;46541;49.894;10.886;2023-07-13T07:47:34;25.20;71.90
60701;DHT22;46541;49.894;10.886;2023-07-13T07:50:01;25.20;71.20
60701;DHT22;46541;49.894;10.886;2023-07-13T07:52:28;25.30;70.50
60701;DHT22;46541;49.894;10.886;2023-07-13T07:54:55;25.20;71.30
60701;DHT22;46541;49.894;10.886;2023-07-13T07:57:42;25.30;69.90
60701;DHT22;46541;49.894;10.886;2023-07-13T08:00:12;25.40;69.50
60701;DHT22;46541;49.894;10.886;2023-07-13T08:02:42;25.60;68.10
60701;DHT22;46541;49.894;10.886;2023-07-13T08:05:29;25.90;67.80
60701;DHT22;46541;49.894;10.886;2023-07-13T08:07:59;25.90;67.40
60701;DHT22;46541;49.894;10.886;2023-07-13T08:10:26;26.00;66.90
60701;DHT22;46541;49.894;10.886;2023-07-13T08:12:52;25.90;66.10
60701;DHT22;46541;49.894;10.886;2023-07-13T08:15:22;25.90;66.90
60701;DHT22;46541;49.894;10.886;2023-07-13T08:17:50;26.10;66.00
60701;DHT22;46541;49.894;10.886;2023-07-13T08:20:16;26.30;65.60
60701;DHT22;46541;49.894;10.886;2023-07-13T08:22:44;26.30;63.20
60701;DHT22;46541;49.894;10.886;2023-07-13T08:25:10;26.60;62.20
60701;DHT22;46541;49.894;10.886;2023-07-13T08:27:37;26.70;61.40
60701;DHT22;46541;49.894;10.886;2023-07-13T08:30:04;27.00;60.70
60701;DHT22;46541;49.894;10.886;2023-07-13T08:32:32;27.00;59.80
60701;DHT22;46541;49.894;10.886;2023-07-13T08:34:59;26.90;60.10
60701;DHT22;46541;49.894;10.886;2023-07-13T08:37:26;27.20;60.80
60701;DHT22;46541;49.894;10.886;2023-07-13T08:39:52;27.30;59.40
60701;DHT22;46541;49.894;10.886;2023-07-13T08:42:36;27.30;59.70
60701;DHT22;46541;49.894;10.886;2023-07-13T08:45:20;27.10;60.00
60701;DHT22;46541;49.894;10.886;2023-07-13T08:48:04;26.90;58.00
60701;DHT22;46541;49.894;10.886;2023-07-13T08:50:51;27.10;58.20
60701;DHT22;46541;49.894;10.886;2023-07-13T08:53:36;27.40;57.90
60701;DHT22;46541;49.894;10.886;2023-07-13T08:56:11;27.70;58.00
60701;DHT22;46541;49.894;10.886;2023-07-13T08:58:40;27.90;56.60
60701;DHT22;46541;49.894;10.886;2023-07-13T09:01:47;28.00;56.50
60701;DHT22;46541;49.894;10.886;2023-07-13T09:04:33;28.10;54.70
60701;DHT22;46541;49.894;10.886;2023-07-13T09:15:28;28.30;54.80
60701;DHT22;46541;49.894;10.886;2023-07-13T09:18:07;28.50;55.00
60701;DHT22;46541;49.894;10.886;2023-07-13T09:20:46;28.20;54.40
60701;DHT22;46541;49.894;10.886;2023-07-13T09:23:17;28.20;54.70
60701;DHT22;46541;49.894;10.886;2023-07-13T09:25:47;28.40;54.40
60701;DHT22;46541;49.894;10.886;2023-07-13T09:28:24;28.30;54.40
60701;DHT22;46541;49.894;10.886;2023-07-13T09:31:06;28.40;55.00
60701;DHT22;46541;49.894;10.886;2023-07-13T09:33:33;28.50;55.20
60701;DHT22;46541;49.894;10.886;2023-07-13T09:38:44;28.70;54.20
60701;DHT22;46541;49.894;10.886;2023-07-13T09:41:22;28.90;54.50
60701;DHT22;46541;49.894;10.886;2023-07-13T09:44:11;29.00;54.90
60701;DHT22;46541;49.894;10.886;2023-07-13T09:46:43;29.10;53.40
60701;DHT22;46541;49.894;10.886;2023-07-13T09:49:11;29.20;53.30
60701;DHT22;46541;49.894;10.886;2023-07-13T09:51:41;29.00;52.70
60701;DHT22;46541;49.894;10.886;2023-07-13T09:54:21;29.00;52.20
60701;DHT22;46541;49.894;10.886;2023-07-13T09:56:48;28.90;53.10
60701;DHT22;46541;49.894;10.886;2023-07-13T09:59:21;28.90;53.50
60701;DHT22;46541;49.894;10.886;2023-07-13T10:01:50;29.00;53.00
60701;DHT22;46541;49.894;10.886;2023-07-13T10:04:19;28.90;51.90
60701;DHT22;46541;49.894;10.886;2023-07-13T10:06:46;28.70;52.10
60701;DHT22;46541;49.894;10.886;2023-07-13T10:09:17;28.70;52.00
60701;DHT22;46541;49.894;10.886;2023-07-13T10:11:45;28.80;52.50
60701;DHT22;46541;49.894;10.886;2023-07-13T10:14:17;28.80;52.80
60701;DHT22;46541;49.894;10.886;2023-07-13T10:16:47;28.90;52.70
60701;DHT22;46541;49.894;10.886;2023-07-13T10:19:25;28.90;52.90
60701;DHT22;46541;49.894;10.886;2023-07-13T10:24:31;28.60;52.70
60701;DHT22;46541;49.894;10.886;2023-07-13T10:27:18;28.80;52.80
60701;DHT22;46541;49.894;10.886;2023-07-13T10:29:53;29.00;52.30
60701;DHT22;46541;49.894;10.886;2023-07-13T10:32:23;28.80;51.80
60701;DHT22;46541;49.894;10.886;2023-07-13T10:34:51;28.90;51.50
60701;DHT22;46541;49.894;10.886;2023-07-13T10:37:27;28.50;52.20
60701;DHT22;46541;49.894;10.886;2023-07-13T10:39:57;28.70;52.80
60701;DHT22;46541;49.894;10.886;2023-07-13T10:42:39;28.80;52.60
60701;DHT22;46541;49.894;10.886;2023-07-13T10:45:19;28.90;52.10
60701;DHT22;46541;49.894;10.886;2023-07-13T10:47:48;29.10;52.40
60701;DHT22;46541;49.894;10.886;2023-07-13T10:50:24;29.10;52.20
60701;DHT22;46541;49.894;10.886;2023-07-13T10:52:55;29.00;52.00
60701;DHT22;46541;49.894;10.886;2023-07-13T10:55:54;29.10;52.20
60701;DHT22;46541;49.894;10.886;2023-07-13T10:58:41;29.40;52.20
60701;DHT22;46541;49.894;10.886;2023-07-13T11:01:18;29.80;52.00
60701;DHT22;46541;49.894;10.886;2023-07-13T11:04:11;30.00;51.60
60701;DHT22;46541;49.894;10.886;2023-07-13T11:06:40;30.10;51.40
60701;DHT22;46541;49.894;10.886;2023-07-13T11:09:39;29.50;51.70
60701;DHT22;46541;49.894;10.886;2023-07-13T11:12:10;29.60;51.90
60701;DHT22;46541;49.894;10.886;2023-07-13T11:17:47;29.90;51.80
60701;DHT22;46541;49.894;10.886;2023-07-13T11:22:51;30.10;51.20
60701;DHT22;46541;49.894;10.886;2023-07-13T11:35:59;30.00;51.00
60701;DHT22;46541;49.894;10.886;2023-07-13T11:38:37;30.30;51.20
60701;DHT22;46541;49.894;10.886;2023-07-13T11:43:34;30.40;50.80
60701;DHT22;46541;49.894;10.886;2023-07-13T11:46:20;30.40;50.40
60701;DHT22;46541;49.894;10.886;2023-07-13T11:48:49;30.40;50.30
60701;DHT22;46541;49.894;10.886;2023-07-13T11:51:35;30.00;50.70
60701;DHT22;46541;49.894;10.886;2023-07-13T11:54:05;29.80;51.30
60701;DHT22;46541;49.894;10.886;2023-07-13T11:56:34;30.10;51.50
60701;DHT22;46541;49.894;10.886;2023-07-13T11:59:07;30.30;49.80
60701;DHT22;46541;49.894;10.886;2023-07-13T12:01:38;30.40;50.10
60701;DHT22;46541;49.894;10.886;2023-07-13T12:04:19;30.10;50.80
60701;DHT22;46541;49.894;10.886;2023-07-13T12:06:57;29.70;51.10
60701;DHT22;46541;49.894;10.886;2023-07-13T12:09:27;29.60;52.00
60701;DHT22;46541;49.894;10.886;2023-07-13T12:11:55;29.60;52.20
60701;DHT22;46541;49.894;10.886;2023-07-13T12:14:22;29.60;51.20
60701;DHT22;46541;49.894;10.886;2023-07-13T12:16:51;29.90;50.90
60701;DHT22;46541;49.894;10.886;2023-07-13T12:19:22;29.90;50.70
60701;DHT22;46541;49.894;10.886;2023-07-13T12:21:52;29.90;50.90
60701;DHT22;46541;49.894;10.886;2023-07-13T12:24:21;29.80;50.80
60701;DHT22;46541;49.894;10.886;2023-07-13T12:26:54;30.00;51.00
60701;DHT22;46541;49.894;10.886;2023-07-13T12:29:22;30.20;50.40
60701;DHT22;46541;49.894;10.886;2023-07-13T12:31:49;30.30;51.00
60701;DHT22;46541;49.894;10.886;2023-07-13T12:34:21;30.20;52.00
60701;DHT22;46541;49.894;10.886;2023-07-13T12:37:08;30.00;50.70
60701;DHT22;46541;49.894;10.886;2023-07-13T12:39:45;29.90;50.60
60701;DHT22;46541;49.894;10.886;2023-07-13T12:45:18;29.80;51.60
60701;DHT22;46541;49.894;10.886;2023-07-13T12:47:49;29.80;51.70
60701;DHT22;46541;49.894;10.886;2023-07-13T12:50:19;29.70;50.80
60701;DHT22;46541;49.894;10.886;2023-07-13T12:52:51;29.50;50.90
60701;DHT22;46541;49.894;10.886;2023-07-13T12:55:20;29.40;51.70
60701;DHT22;46541;49.894;10.886;2023-07-13T12:57:58;29.10;51.50
60701;DHT22;46541;49.894;10.886;2023-07-13T13:00:31;29.20;51.80
60701;DHT22;46541;49.894;10.886;2023-07-13T13:06:04;29.50;52.20
60701;DHT22;46541;49.894;10.886;2023-07-13T13:08:34;29.70;52.20
60701;DHT22;46541;49.894;10.886;2023-07-13T13:11:02;29.70;51.40
60701;DHT22;46541;49.894;10.886;2023-07-13T13:13:28;29.90;50.80
60701;DHT22;46541;49.894;10.886;2023-07-13T13:15:55;30.00;51.60
60701;DHT22;46541;49.894;10.886;2023-07-13T13:18:23;29.80;51.40
60701;DHT22;46541;49.894;10.886;2023-07-13T13:20:51;30.00;51.40
60701;DHT22;46541;49.894;10.886;2023-07-13T13:23:20;29.90;51.50
60701;DHT22;46541;49.894;10.886;2023-07-13T13:25:49;29.80;51.00
60701;DHT22;46541;49.894;10.886;2023-07-13T13:28:19;29.60;51.10
60701;DHT22;46541;49.894;10.886;2023-07-13T13:30:50;29.20;51.80
60701;DHT22;46541;49.894;10.886;2023-07-13T13:33:19;29.10;52.90
60701;DHT22;46541;49.894;10.886;2023-07-13T13:35:47;28.80;52.90
60701;DHT22;46541;49.894;10.886;2023-07-13T13:38:16;28.60;52.80
60701;DHT22;46541;49.894;10.886;2023-07-13T13:40:44;28.70;53.10
60701;DHT22;46541;49.894;10.886;2023-07-13T13:43:23;28.90;52.30
60701;DHT22;46541;49.894;10.886;2023-07-13T13:45:58;29.20;52.40
60701;DHT22;46541;49.894;10.886;2023-07-13T13:48:31;29.10;52.00
60701;DHT22;46541;49.894;10.886;2023-07-13T13:51:00;29.00;52.50
60701;DHT22;46541;49.894;10.886;2023-07-13T13:53:27;29.00;52.10
60701;DHT22;46541;49.894;10.886;2023-07-13T13:55:54;29.10;52.50
60701;DHT22;46541;49.894;10.886;2023-07-13T13:58:21;30.40;52.40
60701;DHT22;46541;49.894;10.886;2023-07-13T14:00:48;31.40;50.30
60701;DHT22;46541;49.894;10.886;2023-07-13T14:03:20;31.30;50.10
60701;DHT22;46541;49.894;10.886;2023-07-13T14:05:48;30.80;49.60
60701;DHT22;46541;49.894;10.886;2023-07-13T14:08:18;30.10;50.30
60701;DHT22;46541;49.894;10.886;2023-07-13T14:10:48;30.00;50.80
60701;DHT22;46541;49.894;10.886;2023-07-13T14:13:27;30.00;50.70
60701;DHT22;46541;49.894;10.886;2023-07-13T14:15:55;30.20;50.80
60701;DHT22;46541;49.894;10.886;2023-07-13T14:18:22;30.00;50.80
60701;DHT22;46541;49.894;10.886;2023-07-13T14:20:50;29.90;51.20
60701;DHT22;46541;49.894;10.886;2023-07-13T14:23:19;29.60;50.90
60701;DHT22;46541;49.894;10.886;2023-07-13T14:25:47;29.70;51.30
60701;DHT22;46541;49.894;10.886;2023-07-13T14:28:21;30.00;51.40
60701;DHT22;46541;49.894;10.886;2023-07-13T14:30:49;30.20;51.50
60701;DHT22;46541;49.894;10.886;2023-07-13T14:33:16;29.90;50.90
60701;DHT22;46541;49.894;10.886;2023-07-13T14:35:44;29.70;51.40
60701;DHT22;46541;49.894;10.886;2023-07-13T14:38:18;29.50;51.20
60701;DHT22;46541;49.894;10.886;2023-07-13T14:40:45;29.40;51.20
60701;DHT22;46541;49.894;10.886;2023-07-13T14:43:14;29.50;51.30
60701;DHT22;46541;49.894;10.886;2023-07-13T14:45:48;29.30;51.90
60701;DHT22;46541;49.894;10.886;2023-07-13T14:48:20;29.00;52.10
60701;DHT22;46541;49.894;10.886;2023-07-13T14:50:54;28.90;52.30
60701;DHT22;46541;49.894;10.886;2023-07-13T14:53:24;28.50;53.20
60701;DHT22;46541;49.894;10.886;2023-07-13T14:55:51;28.40;53.20
60701;DHT22;46541;49.894;10.886;2023-07-13T14:58:18;28.20;53.50
60701;DHT22;46541;49.894;10.886;2023-07-13T15:00:45;28.10;53.50
60701;DHT22;46541;49.894;10.886;2023-07-13T15:03:22;28.20;53.60
60701;DHT22;46541;49.894;10.886;2023-07-13T15:05:49;28.40;53.30
60701;DHT22;46541;49.894;10.886;2023-07-13T15:08:17;28.60;52.60
60701;DHT22;46541;49.894;10.886;2023-07-13T15:10:43;28.70;52.20
60701;DHT22;46541;49.894;10.886;2023-07-13T15:13:28;28.80;52.50
60701;DHT22;46541;49.894;10.886;2023-07-13T15:15:55;28.70;52.80
60701;DHT22;46541;49.894;10.886;2023-07-13T15:18:24;28.60;51.80
60701;DHT22;46541;49.894;10.886;2023-07-13T15:20:52;28.40;52.00
60701;DHT22;46541;49.894;10.886;2023-07-13T15:23:22;28.50;52.20
60701;DHT22;46541;49.894;10.886;2023-07-13T15:25:49;28.80;52.50
60701;DHT22;46541;49.894;10.886;2023-07-13T15:28:16;28.80;52.10
60701;DHT22;46541;49.894;10.886;2023-07-13T15:30:48;28.80;51.60
60701;DHT22;46541;49.894;10.886;2023-07-13T15:33:23;29.10;52.10
60701;DHT22;46541;49.894;10.886;2023-07-13T15:35:51;29.20;51.20
60701;DHT22;46541;49.894;10.886;2023-07-13T15:38:25;29.20;52.00
60701;DHT22;46541;49.894;10.886;2023-07-13T15:40:53;29.30;51.30
60701;DHT22;46541;49.894;10.886;2023-07-13T15:43:20;29.20;51.40
60701;DHT22;46541;49.894;10.886;2023-07-13T15:45:47;29.00;51.80
60701;DHT22;46541;49.894;10.886;2023-07-13T15:48:22;28.90;51.90
60701;DHT22;46541;49.894;10.886;2023-07-13T15:50:50;28.80;51.70
60701;DHT22;46541;49.894;10.886;2023-07-13T15:53:24;28.60;51.70
60701;DHT22;46541;49.894;10.886;2023-07-13T15:55:52;28.40;52.70
60701;DHT22;46541;49.894;10.886;2023-07-13T15:58:19;28.20;52.30
60701;DHT22;46541;49.894;10.886;2023-07-13T16:00:47;28.20;52.50
60701;DHT22;46541;49.894;10.886;2023-07-13T16:03:21;28.10;52.90
60701;DHT22;46541;49.894;10.886;2023-07-13T16:05:49;28.20;53.00
60701;DHT22;46541;49.894;10.886;2023-07-13T16:08:23;28.20;53.00
60701;DHT22;46541;49.894;10.886;2023-07-13T16:10:50;28.20;53.10